Johnstown, PA

7:48 AM EST on December 22, 2014 (GMT -0500)
Cambria City | Change Station
CLOSE
Current Station
Personal Weather Station
Location: Johnstown, PA
Elevation: 1160 ft
Nearby Weather Stations

Elev 1160 ft 40.34 °N, 78.93 °W | Updated 9 hours ago

Partly Cloudy
Partly Cloudy
27 °F
Feels Like 27 °F
N
6
Wind Variable Wind from SE
Gusts 6 mph

Today
High -- | Low -- °F
--% Chance of Precip.
Yesterday
High -- | Low -- °F
Precip. -- in
7:35 AM 4:53 PM
New Moon, 0% visible
Pressure 30.21 in
Visibility 6.0 miles
Clouds Clear
Dew Point 20 °F
Humidity 76%
Rainfall 0.00 in
Snow Depth Not available.
UV 0 out of 12
Pollen .10 out of 12
Air Quality Not available.
Flu Activity Not available.
METAR KJST 221154Z AUTO 19004KT 6SM BR CLR M06/M08 A3011 RMK AO2 SLP228 T10561078 11044 21061 55001

More Conditions Fewer Conditions

Pressure 30.21 in
Visibility 6.0 miles
Clouds Clear
Dew Point 20 °F
Humidity 76%
Rainfall 0.00 in
Snow Depth Not available.
UV 0 out of 12
Pollen .10 out of 12
Air Quality Not available.
Flu Activity Not available.
METAR KJST 221154Z AUTO 19004KT 6SM BR CLR M06/M08 A3011 RMK AO2 SLP228 T10561078 11044 21061 55001

More Conditions Fewer Conditions

10-Day Weather Forecast

Almanac

Astronomy

Dec. 22, 2014 Rise Set
Actual Time
Civil Twilight
Nautical Twilight
Astronomical Twilight
Moon
Length of Visible Light
Length of Day
Tomorrow will be .
, % of the Moon is Illuminated

Today's Extremes

State Highs State Lows

Community

WunderPhotos

Upload Photos

1,779,598 photos uploaded!

WunderBlogs® & News

Nearby

Air Quality

  Air Quality AQ Index Pollutant
Not available.

Snow Depth

Station Depth Elevation

Earthquake Activity

City Distance Mag. Time & Date
Minimum magnitude displayed is 2.5.

Coastal Water Temperatures

Place Temperature

Nearby Weather Stations